Terminal Aerodrome Forecast
Issued by NWS Binghamton, NY

Home | Current Version | Previous Version | Text Only | Print | Product List | Glossary On
Versions: 1 2 3 4 5 6 7 8 9 10 11 12 13 14 15 16 17 18 19
078
FTUS41 KBGM 192326
TAFBGM
TAF
KBGM 192326Z 2000/2024 26010KT P6SM BKN050
     FM200300 29005KT P6SM SCT050 SCT100
      TEMPO 2008/2012 5SM BR SCT010
     FM201400 30010KT P6SM SCT045=

USA.gov is the U.S. government's official web portal to all federal, state and local government web resources and services.